Time;durP1;ratioP1;P1;durP2;ratioP2;P2;SDS_P1;SDS_P2;PMS_P1;PMS_P2;Temp;Humidity;BMP_temperature;BMP_pressure;BME280_temperature;BME280_humidity;BME280_pressure;Samples;Min_cycle;Max_cycle;Signal;HPM_P1;HPM_P2
2022/10/10 00:01:20;;;;;;;6.78;3.03;;;11.50;91.80;;;;;;5036752;28;20112;-71
2022/10/10 00:03:51;;;;;;;8.77;2.92;;;11.50;91.90;;;;;;5036246;28;20029;-71
2022/10/10 00:06:17;;;;;;;5.50;2.83;;;11.50;91.90;;;;;;5036738;28;20035;-72
2022/10/10 00:08:43;;;;;;;4.78;2.78;;;11.50;92.00;;;;;;5055275;28;20068;-71
2022/10/10 00:11:10;;;;;;;6.10;2.72;;;11.50;91.90;;;;;;5037242;28;20040;-71
2022/10/10 00:13:36;;;;;;;10.85;3.28;;;11.50;91.90;;;;;;5040267;28;20102;-71
2022/10/10 00:16:03;;;;;;;5.70;2.60;;;11.50;92.00;;;;;;5041773;28;20047;-71
2022/10/10 00:18:29;;;;;;;4.00;2.70;;;11.50;92.00;;;;;;5038784;28;20064;-73
2022/10/10 00:20:54;;;;;;;8.27;2.90;;;11.50;92.20;;;;;;5039741;28;20513;-71
2022/10/10 00:23:20;;;;;;;5.90;2.58;;;11.50;92.30;;;;;;5040371;28;20025;-71
2022/10/10 00:25:46;;;;;;;9.18;2.92;;;11.50;92.40;;;;;;5039388;28;20105;-71
2022/10/10 00:28:12;;;;;;;7.65;3.28;;;11.40;92.40;;;;;;5037706;28;20022;-71
2022/10/10 00:30:38;;;;;;;6.32;2.75;;;11.40;92.60;;;;;;5038577;28;20029;-71
2022/10/10 00:33:04;;;;;;;9.70;2.78;;;11.30;92.70;;;;;;5038276;28;20506;-71
2022/10/10 00:35:32;;;;;;;4.88;2.97;;;11.20;92.90;;;;;;5047007;28;20034;-70
2022/10/10 00:37:58;;;;;;;9.55;3.30;;;11.20;93.20;;;;;;5038452;28;20033;-71
2022/10/10 00:40:26;;;;;;;5.68;2.78;;;11.10;93.30;;;;;;5042379;28;20052;-69
2022/10/10 00:42:52;;;;;;;5.80;2.78;;;11.10;93.60;;;;;;5039018;28;20032;-71
2022/10/10 00:45:27;;;;;;;7.18;2.95;;;11.00;93.70;;;;;;5039315;28;20033;-71
2022/10/10 00:48:02;;;;;;;7.72;3.10;;;11.00;93.90;;;;;;5037443;28;20487;-71
2022/10/10 00:50:29;;;;;;;8.90;3.45;;;10.90;94.10;;;;;;5037258;28;20040;-71
2022/10/10 00:52:56;;;;;;;8.07;2.78;;;10.90;94.40;;;;;;5039588;28;20427;-72
2022/10/10 00:55:24;;;;;;;5.10;3.08;;;10.90;94.90;;;;;;5039113;28;20025;-70
2022/10/10 00:57:50;;;;;;;10.05;2.80;;;10.90;94.70;;;;;;5034805;28;20342;-71
2022/10/10 01:00:17;;;;;;;4.13;2.97;;;10.90;94.80;;;;;;5042039;28;20036;-71
2022/10/10 01:02:42;;;;;;;7.22;3.60;;;10.90;94.90;;;;;;5038403;28;20022;-70
2022/10/10 01:05:08;;;;;;;7.35;3.00;;;11.00;94.90;;;;;;5034546;28;20473;-71
2022/10/10 01:07:34;;;;;;;5.97;3.10;;;11.00;94.80;;;;;;5041258;28;20025;-71
2022/10/10 01:10:05;;;;;;;8.27;3.35;;;11.00;94.80;;;;;;5034379;28;20029;-71
2022/10/10 01:12:39;;;;;;;7.15;2.88;;;11.10;94.90;;;;;;5035847;28;20100;-70
2022/10/10 01:15:35;;;;;;;5.38;2.95;;;11.10;94.90;;;;;;5037895;28;20033;-71
2022/10/10 01:18:06;;;;;;;6.65;3.05;;;11.20;94.80;;;;;;5036761;28;20029;-71
2022/10/10 01:20:59;;;;;;;4.35;2.90;;;11.20;94.80;;;;;;5036605;28;20520;-71
2022/10/10 01:23:25;;;;;;;;;;;11.30;94.90;;;;;;5036514;28;20214;-71
2022/10/10 01:26:09;;;;;;;8.90;3.28;;;11.30;94.90;;;;;;5042230;28;20386;-70
2022/10/10 01:28:58;;;;;;;3.63;2.55;;;11.30;94.90;;;;;;5038189;28;20108;-71
2022/10/10 01:31:25;;;;;;;5.80;2.90;;;11.30;94.90;;;;;;5034591;28;20039;-71
2022/10/10 01:34:07;;;;;;;4.53;2.47;;;11.40;94.90;;;;;;5034346;28;20104;-71
2022/10/10 01:36:57;;;;;;;7.45;2.70;;;11.40;94.80;;;;;;5042142;28;20504;-71
2022/10/10 01:39:40;;;;;;;3.55;2.63;;;11.40;94.80;;;;;;5039575;28;20044;-70
2022/10/10 01:42:15;;;;;;;11.40;2.92;;;11.40;94.80;;;;;;5038259;28;20017;-71
2022/10/10 01:44:45;;;;;;;5.25;2.50;;;11.50;94.80;;;;;;5035124;28;20107;-71
2022/10/10 01:47:12;;;;;;;5.15;2.55;;;11.50;94.70;;;;;;5036309;28;20381;-71
2022/10/10 01:49:39;;;;;;;4.50;2.88;;;11.60;94.80;;;;;;5040568;28;20083;-71
2022/10/10 01:52:26;;;;;;;5.93;2.65;;;11.60;94.70;;;;;;5038362;28;20327;-71
2022/10/10 01:55:00;;;;;;;3.70;2.17;;;11.60;94.80;;;;;;5038562;28;20044;-71
2022/10/10 01:57:26;;;;;;;6.85;2.60;;;11.60;94.70;;;;;;5039050;28;20065;-72
2022/10/10 02:00:08;;;;;;;4.28;2.58;;;11.60;94.70;;;;;;5035765;28;20071;-72
2022/10/10 02:02:56;;;;;;;6.05;2.65;;;11.70;94.70;;;;;;5039673;28;20028;-71
2022/10/10 02:05:40;;;;;;;5.22;2.80;;;11.70;94.70;;;;;;5037404;28;20095;-71
2022/10/10 02:08:09;;;;;;;5.80;2.92;;;11.70;94.70;;;;;;5034571;28;20029;-71
2022/10/10 02:10:42;;;;;;;4.50;2.38;;;11.70;94.70;;;;;;5036697;28;20013;-71
2022/10/10 02:13:10;;;;;;;11.40;2.75;;;11.70;94.70;;;;;;5038351;28;20033;-71
2022/10/10 02:15:43;;;;;;;7.25;2.95;;;11.70;94.70;;;;;;5039968;28;20128;-71
2022/10/10 02:18:12;;;;;;;5.88;2.97;;;11.60;94.70;;;;;;5035102;28;20041;-71
2022/10/10 02:20:38;;;;;;;8.82;3.05;;;11.70;94.80;;;;;;5036906;28;20315;-71
2022/10/10 02:23:05;;;;;;;6.82;2.90;;;11.70;94.80;;;;;;5037546;28;20037;-71
2022/10/10 02:25:38;;;;;;;13.98;3.08;;;11.60;94.70;;;;;;5037108;28;20064;-71
2022/10/10 02:28:26;;;;;;;5.97;3.03;;;11.60;94.90;;;;;;5039747;28;20059;-71
2022/10/10 02:30:56;;;;;;;5.47;2.95;;;11.60;94.90;;;;;;5039969;28;20068;-71
2022/10/10 02:33:33;;;;;;;8.20;3.03;;;11.60;95.00;;;;;;5038951;28;20033;-72
2022/10/10 02:36:00;;;;;;;6.18;2.85;;;11.60;95.00;;;;;;5038657;28;20720;-71
2022/10/10 02:38:28;;;;;;;4.50;2.85;;;11.60;95.10;;;;;;5035746;28;20037;-71
2022/10/10 02:41:02;;;;;;;4.03;2.78;;;11.60;95.10;;;;;;5049169;28;20584;-72
2022/10/10 02:43:30;;;;;;;2.97;2.50;;;11.60;95.10;;;;;;5040013;28;20126;-71
2022/10/10 02:46:02;;;;;;;4.93;2.97;;;11.60;95.10;;;;;;5039436;28;20029;-71
2022/10/10 02:48:28;;;;;;;6.35;3.20;;;11.60;95.10;;;;;;5037332;28;20018;-70
2022/10/10 02:50:53;;;;;;;8.35;3.10;;;11.60;95.20;;;;;;5036250;28;20966;-71
2022/10/10 02:53:19;;;;;;;6.80;2.63;;;11.60;95.30;;;;;;5041413;28;20033;-71
2022/10/10 02:55:49;;;;;;;12.18;2.70;;;11.60;95.20;;;;;;5039168;28;20076;-71
2022/10/10 02:58:19;;;;;;;5.03;2.85;;;11.60;95.30;;;;;;5041174;28;20029;-71
2022/10/10 03:00:45;;;;;;;3.70;2.47;;;11.60;95.30;;;;;;5041640;28;20028;-69
2022/10/10 03:03:11;;;;;;;5.22;2.63;;;11.60;95.30;;;;;;5041116;28;20022;-69
2022/10/10 03:05:36;;;;;;;3.53;2.40;;;11.60;95.40;;;;;;5041681;28;20075;-71
2022/10/10 03:08:02;;;;;;;9.30;2.58;;;11.60;95.40;;;;;;5040123;28;20048;-71
2022/10/10 03:10:30;;;;;;;4.10;2.40;;;11.60;95.40;;;;;;5042779;28;20025;-72
2022/10/10 03:12:56;;;;;;;9.13;2.92;;;11.60;95.70;;;;;;5042456;28;20032;-71
2022/10/10 03:15:21;;;;;;;4.13;2.33;;;11.60;95.50;;;;;;5040314;28;20033;-71
2022/10/10 03:17:47;;;;;;;4.68;2.20;;;11.60;95.50;;;;;;5039375;28;20049;-71
2022/10/10 03:20:12;;;;;;;5.68;2.35;;;11.60;95.60;;;;;;5037474;28;20033;-71
2022/10/10 03:22:38;;;;;;;6.03;2.67;;;11.60;95.60;;;;;;5037323;28;20030;-71
2022/10/10 03:25:04;;;;;;;4.80;2.40;;;11.60;95.70;;;;;;5040544;28;20072;-71
2022/10/10 03:27:34;;;;;;;3.42;2.30;;;11.60;95.70;;;;;;5045340;28;20017;-71
2022/10/10 03:30:00;;;;;;;4.43;2.35;;;11.60;96.00;;;;;;5041686;28;20033;-72
2022/10/10 03:32:28;;;;;;;4.65;3.00;;;11.60;95.70;;;;;;5041416;28;20150;-71
2022/10/10 03:34:53;;;;;;;7.40;2.60;;;11.60;95.80;;;;;;5037370;28;20476;-71
2022/10/10 03:37:19;;;;;;;2.90;1.92;;;11.60;95.80;;;;;;5038232;28;20104;-70
2022/10/10 03:39:47;;;;;;;2.85;2.13;;;11.60;95.80;;;;;;5047890;28;20029;-71
2022/10/10 03:42:13;;;;;;;3.30;2.13;;;11.60;95.80;;;;;;5043714;28;20036;-71
2022/10/10 03:44:40;;;;;;;6.78;2.65;;;11.70;95.90;;;;;;5040723;28;20013;-71
2022/10/10 03:47:06;;;;;;;7.18;2.33;;;11.60;95.90;;;;;;5040522;28;20030;-71
2022/10/10 03:49:32;;;;;;;6.90;2.20;;;11.60;96.00;;;;;;5037855;28;20025;-71
2022/10/10 03:51:59;;;;;;;6.13;2.40;;;11.60;96.10;;;;;;5038851;28;20067;-71
2022/10/10 03:54:27;;;;;;;3.80;2.58;;;11.60;96.10;;;;;;5043013;28;20030;-71
2022/10/10 03:56:53;;;;;;;4.45;2.72;;;11.60;96.20;;;;;;5039406;28;20022;-72
2022/10/10 03:59:18;;;;;;;5.55;2.58;;;11.60;96.20;;;;;;5038818;28;20489;-71
2022/10/10 04:01:44;;;;;;;5.95;2.63;;;11.60;96.30;;;;;;5038971;28;20047;-71
2022/10/10 04:04:11;;;;;;;4.53;2.50;;;11.60;96.40;;;;;;5039072;28;20027;-72
2022/10/10 04:06:39;;;;;;;3.67;2.63;;;11.50;96.50;;;;;;5043412;28;20468;-71
2022/10/10 04:09:05;;;;;;;6.32;2.75;;;11.50;96.70;;;;;;5045395;28;20331;-71
2022/10/10 04:11:30;;;;;;;5.65;2.72;;;11.50;96.70;;;;;;5041960;28;20025;-72
2022/10/10 04:13:56;;;;;;;3.53;2.60;;;11.50;96.70;;;;;;5042410;28;20032;-70
2022/10/10 04:16:22;;;;;;;8.80;2.45;;;11.50;96.80;;;;;;5043840;28;20028;-71
2022/10/10 04:18:47;;;;;;;5.93;2.90;;;11.50;96.90;;;;;;5042260;28;20428;-71
2022/10/10 04:21:13;;;;;;;5.75;2.72;;;11.50;97.00;;;;;;5041649;28;20035;-71
2022/10/10 04:23:43;;;;;;;7.32;3.05;;;11.40;97.10;;;;;;5038960;28;20018;-72
2022/10/10 04:26:09;;;;;;;14.60;2.92;;;11.40;97.30;;;;;;5043711;28;20029;-71
2022/10/10 04:28:34;;;;;;;7.40;2.75;;;11.40;97.40;;;;;;5035881;28;21411;-71
2022/10/10 04:31:00;;;;;;;9.00;3.00;;;11.40;97.50;;;;;;5040925;28;20039;-70
2022/10/10 04:33:25;;;;;;;6.38;3.13;;;11.40;97.80;;;;;;5039967;28;20720;-71
2022/10/10 04:35:51;;;;;;;8.60;3.55;;;11.30;98.00;;;;;;5040396;28;20030;-70
2022/10/10 04:38:20;;;;;;;7.88;3.25;;;11.30;98.10;;;;;;5036661;28;20366;-71
2022/10/10 04:40:49;;;;;;;7.15;3.72;;;11.30;98.20;;;;;;5036988;28;20036;-71
2022/10/10 04:43:17;;;;;;;5.32;3.58;;;11.30;98.20;;;;;;5040159;28;20021;-72
2022/10/10 04:45:46;;;;;;;12.15;3.80;;;11.30;98.40;;;;;;5039476;28;20021;-72
2022/10/10 04:48:11;;;;;;;10.15;3.92;;;11.30;98.40;;;;;;5038067;28;20552;-72
2022/10/10 04:50:37;;;;;;;8.25;4.40;;;11.30;98.60;;;;;;5039504;28;20096;-72
2022/10/10 04:53:03;;;;;;;10.43;3.88;;;11.30;98.60;;;;;;5039760;28;20049;-72
2022/10/10 04:55:28;;;;;;;5.47;3.92;;;11.30;98.80;;;;;;5041384;28;20063;-71
2022/10/10 04:57:54;;;;;;;11.93;3.92;;;11.30;99.10;;;;;;5039174;28;20053;-71
2022/10/10 05:00:20;;;;;;;10.55;4.38;;;11.30;99.30;;;;;;5039039;28;20029;-72
2022/10/10 05:02:47;;;;;;;7.22;4.10;;;11.20;99.40;;;;;;5040450;28;20448;-70
2022/10/10 05:05:13;;;;;;;8.80;4.40;;;11.20;99.70;;;;;;5035512;28;20120;-70
2022/10/10 05:07:41;;;;;;;8.48;4.35;;;11.20;99.90;;;;;;5036882;28;20107;-70
2022/10/10 05:10:07;;;;;;;8.43;4.22;;;11.20;99.90;;;;;;5040577;28;20037;-70
2022/10/10 05:12:33;;;;;;;8.40;4.45;;;11.20;99.90;;;;;;5045552;28;20116;-70
2022/10/10 05:14:59;;;;;;;9.30;4.40;;;11.20;99.90;;;;;;5036621;28;20208;-72
2022/10/10 05:17:24;;;;;;;15.35;4.60;;;11.20;99.90;;;;;;5046108;28;20477;-73
2022/10/10 05:19:51;;;;;;;12.20;4.32;;;11.20;99.90;;;;;;5036981;28;20439;-72
2022/10/10 05:22:16;;;;;;;10.95;4.05;;;11.20;99.90;;;;;;5035179;28;20024;-69
2022/10/10 05:24:42;;;;;;;10.25;4.50;;;11.10;99.90;;;;;;5035661;28;20096;-73
2022/10/10 05:27:07;;;;;;;17.10;4.68;;;11.10;99.90;;;;;;5040565;28;20025;-71
2022/10/10 05:29:33;;;;;;;10.20;4.63;;;11.10;99.90;;;;;;5041229;28;20101;-71
2022/10/10 05:32:01;;;;;;;10.55;3.95;;;11.20;99.90;;;;;;5039008;28;20453;-71
2022/10/10 05:34:27;;;;;;;8.18;4.40;;;11.10;99.90;;;;;;5037244;28;20116;-70
2022/10/10 05:36:55;;;;;;;7.80;4.35;;;11.10;99.90;;;;;;5036580;28;20109;-71
2022/10/10 05:39:21;;;;;;;8.88;4.10;;;11.10;99.90;;;;;;5037897;28;20109;-71
2022/10/10 05:41:51;;;;;;;13.15;4.45;;;11.10;99.90;;;;;;5036646;28;20059;-71
2022/10/10 05:44:20;;;;;;;10.48;4.38;;;11.10;99.90;;;;;;5038932;28;20021;-71
2022/10/10 05:46:45;;;;;;;10.27;4.75;;;11.10;99.90;;;;;;5033274;28;20351;-73
2022/10/10 05:49:16;;;;;;;13.38;4.40;;;11.10;99.90;;;;;;5036322;28;20022;-71
2022/10/10 05:51:44;;;;;;;9.52;3.97;;;11.00;99.90;;;;;;5037408;28;20552;-71
2022/10/10 05:54:10;;;;;;;7.32;3.85;;;11.00;99.90;;;;;;5038208;28;20037;-71
2022/10/10 05:56:36;;;;;;;5.68;3.63;;;11.00;99.90;;;;;;5034150;28;20025;-71
2022/10/10 05:59:02;;;;;;;7.47;3.55;;;11.00;99.90;;;;;;5035172;28;20113;-69
2022/10/10 06:01:28;;;;;;;4.40;3.13;;;11.00;99.90;;;;;;5037969;28;20057;-70
2022/10/10 06:03:54;;;;;;;8.45;3.83;;;11.00;99.90;;;;;;5038645;28;20064;-71
2022/10/10 06:06:24;;;;;;;11.48;4.13;;;11.10;99.90;;;;;;5039352;28;20101;-71
2022/10/10 06:08:52;;;;;;;11.32;3.85;;;11.10;99.90;;;;;;5038340;28;20025;-70
2022/10/10 06:11:22;;;;;;;7.22;3.63;;;11.10;99.90;;;;;;5038739;28;20368;-71
2022/10/10 06:13:52;;;;;;;4.15;3.15;;;11.10;99.90;;;;;;5052398;28;20097;-71
2022/10/10 06:16:22;;;;;;;5.78;3.38;;;11.20;99.90;;;;;;5036532;28;20033;-71
2022/10/10 06:18:51;;;;;;;9.02;3.63;;;11.10;99.90;;;;;;5035928;28;20104;-70
2022/10/10 06:21:17;;;;;;;9.13;3.35;;;11.10;99.90;;;;;;5036983;28;20151;-71
2022/10/10 06:23:45;;;;;;;12.15;3.60;;;11.20;99.90;;;;;;5037281;28;20030;-70
2022/10/10 06:26:11;;;;;;;9.63;4.32;;;11.20;99.90;;;;;;5036076;28;20107;-71
2022/10/10 06:28:37;;;;;;;10.93;3.95;;;11.30;99.90;;;;;;5043215;28;20097;-70
2022/10/10 06:31:08;;;;;;;4.88;3.55;;;11.30;99.90;;;;;;5040249;28;20029;-71
2022/10/10 06:33:36;;;;;;;7.90;4.32;;;11.30;99.90;;;;;;5039307;28;20116;-72
2022/10/10 06:36:04;;;;;;;9.85;3.72;;;11.30;99.90;;;;;;5042949;28;20021;-71
2022/10/10 06:38:30;;;;;;;12.38;4.43;;;11.30;99.90;;;;;;5040496;28;20037;-70
2022/10/10 06:41:00;;;;;;;9.30;4.28;;;11.40;99.90;;;;;;5043977;28;20025;-71
2022/10/10 06:43:28;;;;;;;10.13;4.50;;;11.50;99.90;;;;;;5041494;28;20744;-71
2022/10/10 06:45:56;;;;;;;7.75;4.72;;;11.50;99.90;;;;;;5044911;28;20095;-71
2022/10/10 06:48:22;;;;;;;15.60;4.80;;;11.50;99.90;;;;;;5044617;28;20061;-71
2022/10/10 06:51:10;;;;;;;7.18;4.45;;;11.50;99.90;;;;;;5041822;28;20049;-71
2022/10/10 06:53:35;;;;;;;11.20;4.57;;;11.60;99.90;;;;;;5039165;28;20323;-71
2022/10/10 06:56:01;;;;;;;8.80;4.85;;;11.60;99.90;;;;;;5039378;28;20032;-71
2022/10/10 06:58:31;;;;;;;11.05;5.38;;;11.70;99.90;;;;;;5039262;28;20119;-73
2022/10/10 07:01:03;;;;;;;12.75;5.07;;;11.70;99.90;;;;;;5041118;28;20041;-70
2022/10/10 07:03:29;;;;;;;12.55;5.70;;;11.80;99.90;;;;;;5046483;28;20026;-74
2022/10/10 07:05:59;;;;;;;9.32;5.43;;;11.80;99.90;;;;;;5043151;28;20026;-72
2022/10/10 07:08:28;;;;;;;9.43;5.30;;;11.80;99.90;;;;;;5041638;28;20035;-71
2022/10/10 07:10:54;;;;;;;12.35;5.53;;;11.90;99.90;;;;;;5037130;28;20029;-73
2022/10/10 07:13:20;;;;;;;15.27;5.90;;;11.90;99.90;;;;;;5049121;28;20034;-73
2022/10/10 07:15:48;;;;;;;9.73;5.20;;;11.90;99.90;;;;;;5042946;28;20033;-71
2022/10/10 07:18:16;;;;;;;14.75;5.32;;;12.00;99.90;;;;;;5042034;28;20362;-71
2022/10/10 07:20:42;;;;;;;12.65;5.80;;;12.10;99.90;;;;;;5043855;28;20476;-72
2022/10/10 07:23:08;;;;;;;12.80;5.30;;;12.10;99.90;;;;;;5042151;28;20059;-72
2022/10/10 07:25:36;;;;;;;15.48;5.10;;;12.10;99.90;;;;;;5043969;28;20045;-73
2022/10/10 07:28:01;;;;;;;12.82;5.97;;;12.20;99.90;;;;;;5042084;28;20121;-73
2022/10/10 07:30:29;;;;;;;10.93;5.50;;;12.30;99.90;;;;;;5043297;28;20466;-71
2022/10/10 07:32:55;;;;;;;16.10;5.50;;;12.40;99.90;;;;;;5041321;28;20033;-69
2022/10/10 07:35:21;;;;;;;15.13;6.57;;;12.40;99.90;;;;;;5039060;28;20029;-74
2022/10/10 07:37:54;;;;;;;18.30;6.47;;;12.50;99.90;;;;;;5040425;28;20037;-71
2022/10/10 07:40:22;;;;;;;10.65;6.10;;;12.50;99.90;;;;;;5043020;28;20370;-72
2022/10/10 07:42:48;;;;;;;20.48;7.30;;;12.50;99.90;;;;;;5038265;28;20034;-68
2022/10/10 07:45:15;;;;;;;17.30;6.22;;;12.70;99.90;;;;;;5041580;28;20028;-69
2022/10/10 07:47:41;;;;;;;12.38;6.47;;;12.70;99.90;;;;;;5040748;28;20103;-72
2022/10/10 07:50:10;;;;;;;12.73;6.68;;;12.70;99.90;;;;;;5041414;28;20119;-71
2022/10/10 07:52:38;;;;;;;15.10;6.15;;;12.80;99.90;;;;;;5044463;28;20039;-75
2022/10/10 07:55:05;;;;;;;10.95;6.55;;;12.80;99.90;;;;;;5042963;28;20111;-72
2022/10/10 07:57:33;;;;;;;9.90;5.55;;;12.80;99.90;;;;;;5043270;28;20039;-73
2022/10/10 08:00:06;;;;;;;16.10;6.32;;;13.00;99.90;;;;;;5039902;28;20473;-74
2022/10/10 08:02:32;;;;;;;18.55;5.78;;;13.20;99.90;;;;;;5036034;28;20029;-71
2022/10/10 08:04:57;;;;;;;17.98;6.45;;;13.40;99.90;;;;;;5046814;28;20103;-74
2022/10/10 08:07:23;;;;;;;15.00;6.10;;;13.40;99.90;;;;;;5044541;28;20056;-72
2022/10/10 08:09:48;;;;;;;16.60;7.05;;;13.50;99.90;;;;;;5039468;28;20033;-70
2022/10/10 08:12:14;;;;;;;13.15;7.22;;;13.60;99.90;;;;;;5041709;28;20025;-71
2022/10/10 08:14:42;;;;;;;17.85;8.40;;;13.80;99.90;;;;;;5041813;28;20450;-69
2022/10/10 08:17:12;;;;;;;11.98;6.38;;;13.80;99.90;;;;;;5043541;28;20033;-72
2022/10/10 08:19:40;;;;;;;15.43;7.07;;;13.80;99.90;;;;;;5046071;28;20071;-71
2022/10/10 08:22:06;;;;;;;14.05;6.15;;;13.90;99.90;;;;;;5044587;28;20095;-71
2022/10/10 08:24:33;;;;;;;12.65;5.40;;;14.10;99.90;;;;;;5042790;28;20048;-72
2022/10/10 08:26:59;;;;;;;10.50;5.43;;;14.20;99.90;;;;;;5041631;28;20030;-73
2022/10/10 08:29:25;;;;;;;12.18;5.55;;;14.30;99.90;;;;;;5047148;28;20028;-73
2022/10/10 08:31:50;;;;;;;13.50;6.25;;;14.40;99.90;;;;;;5057022;28;20608;-73
2022/10/10 08:34:16;;;;;;;16.17;6.18;;;14.50;99.90;;;;;;5043439;28;20030;-73
2022/10/10 08:36:42;;;;;;;9.77;4.85;;;14.70;99.90;;;;;;5044811;28;20115;-74
2022/10/10 08:39:09;;;;;;;11.13;4.95;;;14.80;99.90;;;;;;5041729;28;20389;-73
2022/10/10 08:41:54;;;;;;;7.05;4.47;;;15.00;99.90;;;;;;5041134;28;20021;-71
2022/10/10 08:44:39;;;;;;;6.70;4.35;;;15.20;99.80;;;;;;5038887;28;20047;-76
2022/10/10 08:47:12;;;;;;;6.95;4.60;;;15.20;99.60;;;;;;5037168;28;20101;-72
2022/10/10 08:50:14;;;;;;;14.50;4.53;;;16.30;98.80;;;;;;5039601;28;20021;-72
2022/10/10 08:52:54;;;;;;;17.58;3.80;;;17.30;96.50;;;;;;5024924;28;20033;-71
2022/10/10 08:55:29;;;;;;;710.15;274.02;;;17.70;94.40;;;;;;5035507;28;20106;-69
2022/10/10 08:57:58;;;;;;;46.00;17.30;;;18.60;93.40;;;;;;5036672;28;20082;-70
2022/10/10 09:00:28;;;;;;;10.80;3.78;;;19.10;92.10;;;;;;5036830;28;20104;-71
2022/10/10 09:03:00;;;;;;;10.25;4.13;;;18.60;91.30;;;;;;5037281;28;20458;-72
2022/10/10 09:05:40;;;;;;;7.50;3.65;;;18.10;91.60;;;;;;5038397;28;20404;-72
2022/10/10 09:08:37;;;;;;;8.63;3.65;;;17.30;93.20;;;;;;5041949;28;20049;-72
2022/10/10 09:11:03;;;;;;;4.75;3.47;;;18.50;92.20;;;;;;5036505;28;20052;-72
2022/10/10 09:13:34;;;;;;;13.55;3.88;;;19.40;89.30;;;;;;5039075;28;20025;-71
2022/10/10 09:16:10;;;;;;;12.55;3.88;;;19.70;87.40;;;;;;5048391;28;20058;-71
2022/10/10 09:18:47;;;;;;;11.10;4.13;;;20.40;85.10;;;;;;5037890;28;20021;-71
2022/10/10 09:21:18;;;;;;;8.93;4.38;;;21.00;83.30;;;;;;5039127;28;20040;-71
2022/10/10 09:24:16;;;;;;;10.73;3.85;;;21.40;81.30;;;;;;5037034;28;20075;-71
2022/10/10 09:26:50;;;;;;;10.38;3.47;;;20.00;82.90;;;;;;5039144;28;20136;-72
2022/10/10 09:29:27;;;;;;;8.88;3.03;;;19.20;85.70;;;;;;5036744;28;20101;-71
2022/10/10 09:32:06;;;;;;;12.18;3.80;;;19.40;86.70;;;;;;5037915;28;20131;-70
2022/10/10 09:34:40;;;;;;;9.85;3.42;;;20.10;84.20;;;;;;5037859;28;20033;-72
2022/10/10 09:37:22;;;;;;;8.55;3.33;;;20.40;81.90;;;;;;5039586;28;20111;-71
2022/10/10 09:39:58;;;;;;;8.18;3.63;;;19.80;82.60;;;;;;5038533;28;20033;-72
2022/10/10 09:42:33;;;;;;;6.65;3.15;;;19.40;85.40;;;;;;5037343;28;20029;-73
2022/10/10 09:45:02;;;;;;;11.68;3.42;;;18.80;85.80;;;;;;5037072;28;20443;-72
2022/10/10 09:47:28;;;;;;;9.25;3.05;;;18.80;87.50;;;;;;5041291;28;20146;-71
2022/10/10 09:49:54;;;;;;;8.05;3.10;;;19.50;87.80;;;;;;5053896;28;20128;-71
2022/10/10 09:52:30;;;;;;;6.55;3.72;;;19.60;85.90;;;;;;5040397;28;20080;-71
2022/10/10 09:55:01;;;;;;;14.68;3.67;;;20.10;85.40;;;;;;5036080;28;20033;-70
2022/10/10 09:57:34;;;;;;;11.07;3.45;;;20.30;84.90;;;;;;5034507;28;20032;-72
2022/10/10 10:00:19;;;;;;;9.07;3.88;;;19.80;83.60;;;;;;5037837;28;20048;-71
2022/10/10 10:02:49;;;;;;;10.38;3.83;;;19.70;84.40;;;;;;5038003;28;20021;-71
2022/10/10 10:05:32;;;;;;;6.78;3.78;;;19.90;85.90;;;;;;5037876;28;20128;-72
2022/10/10 10:08:00;;;;;;;8.57;4.10;;;19.70;84.40;;;;;;5038861;28;20457;-72
2022/10/10 10:10:29;;;;;;;10.07;3.65;;;19.50;84.90;;;;;;5038784;28;20029;-71
2022/10/10 10:12:56;;;;;;;6.85;3.65;;;19.50;85.70;;;;;;5038044;28;20032;-72
2022/10/10 10:15:30;;;;;;;9.68;3.75;;;19.70;86.20;;;;;;5037903;28;20489;-73
2022/10/10 10:18:14;;;;;;;13.32;3.97;;;19.50;85.20;;;;;;5040098;28;20037;-71
2022/10/10 10:20:43;;;;;;;10.02;3.90;;;19.90;87.90;;;;;;5034560;28;20037;-71
2022/10/10 10:23:30;;;;;;;17.75;4.40;;;20.50;84.80;;;;;;5041302;28;20020;-73
2022/10/10 10:26:00;;;;;;;6.53;3.90;;;21.00;80.70;;;;;;5038463;28;20083;-72
2022/10/10 10:28:26;;;;;;;8.63;3.88;;;20.60;80.00;;;;;;5037703;28;20029;-71
2022/10/10 10:30:54;;;;;;;7.78;3.60;;;20.70;81.00;;;;;;5039276;28;20374;-73
2022/10/10 10:33:25;;;;;;;14.68;4.00;;;20.50;80.90;;;;;;5035300;28;20072;-72
2022/10/10 10:36:09;;;;;;;11.70;3.85;;;20.20;81.80;;;;;;5037319;28;20037;-71
2022/10/10 10:39:12;;;;;;;4.88;3.17;;;20.80;81.40;;;;;;5040278;28;20029;-71
2022/10/10 10:41:49;;;;;;;8.30;4.00;;;21.30;79.80;;;;;;5037294;28;20033;-71
2022/10/10 10:44:26;;;;;;;8.63;3.83;;;20.80;79.50;;;;;;5035663;28;20175;-69
2022/10/10 10:47:31;;;;;;;14.98;4.03;;;20.80;81.30;;;;;;5041693;28;20025;-72
2022/10/10 10:50:21;;;;;;;9.07;4.32;;;20.80;80.60;;;;;;5036910;28;20467;-75
2022/10/10 10:53:39;;;;;;;12.20;4.05;;;20.50;81.10;;;;;;5041488;28;20397;-70
2022/10/10 10:56:22;;;;;;;10.93;4.03;;;20.50;82.10;;;;;;5013738;28;20124;-71
2022/10/10 10:59:00;;;;;;;15.23;3.67;;;20.40;82.20;;;;;;5046693;28;20032;-70
2022/10/10 11:01:56;;;;;;;15.68;3.90;;;20.60;82.70;;;;;;5036543;28;20026;-71
2022/10/10 11:04:46;;;;;;;9.70;3.65;;;20.80;81.50;;;;;;5036769;28;20040;-72
2022/10/10 11:07:21;;;;;;;5.68;3.80;;;21.00;80.50;;;;;;5039210;28;20451;-73
2022/10/10 11:10:03;;;;;;;12.48;3.53;;;20.80;80.10;;;;;;5038847;28;20536;-72
2022/10/10 11:12:47;;;;;;;8.00;3.47;;;20.70;81.10;;;;;;5036469;28;20025;-72
2022/10/10 11:15:51;;;;;;;8.43;3.70;;;20.70;82.10;;;;;;5042843;28;20045;-71
2022/10/10 11:18:28;;;;;;;;;;;20.70;82.70;;;;;;5044636;28;20028;-72
2022/10/10 11:21:18;;;;;;;8.93;3.35;;;20.90;82.20;;;;;;5044148;28;19925;-71
2022/10/10 11:23:55;;;;;;;10.35;4.35;;;21.00;82.10;;;;;;5043198;28;20025;-70
2022/10/10 11:26:30;;;;;;;9.43;3.83;;;20.90;81.60;;;;;;5040834;28;20434;-71
2022/10/10 11:29:15;;;;;;;8.70;3.42;;;20.90;82.40;;;;;;5039293;28;20025;-72
2022/10/10 11:31:52;;;;;;;5.72;3.85;;;21.10;83.20;;;;;;5046949;28;20029;-71
2022/10/10 11:34:26;;;;;;;11.75;4.05;;;21.30;81.00;;;;;;5041974;28;20030;-71
2022/10/10 11:36:57;;;;;;;13.82;3.90;;;21.60;80.40;;;;;;5041147;28;20072;-72
2022/10/10 11:39:29;;;;;;;11.57;3.60;;;21.60;79.50;;;;;;5040620;28;20055;-71
2022/10/10 11:42:01;;;;;;;9.80;4.10;;;21.70;77.80;;;;;;5040660;28;20093;-71
2022/10/10 11:44:42;;;;;;;10.23;3.70;;;21.40;78.30;;;;;;5044286;28;20458;-71
2022/10/10 11:47:26;;;;;;;10.32;3.88;;;21.40;78.20;;;;;;5035600;28;20116;-72
2022/10/10 11:50:24;;;;;;;16.73;3.42;;;21.60;78.40;;;;;;5042315;28;20021;-71
2022/10/10 11:53:24;;;;;;;11.77;4.32;;;21.70;77.60;;;;;;5042849;28;20076;-71
2022/10/10 11:55:58;;;;;;;10.98;3.20;;;22.20;75.80;;;;;;5038508;28;20112;-71
2022/10/10 11:58:32;;;;;;;10.60;3.22;;;22.20;75.10;;;;;;5046019;28;20086;-72
2022/10/10 12:01:24;;;;;;;9.75;3.10;;;22.20;75.50;;;;;;5043825;28;20021;-71
2022/10/10 12:03:51;;;;;;;14.82;3.45;;;22.40;75.70;;;;;;5039830;28;20056;-72
2022/10/10 12:06:20;;;;;;;7.88;3.03;;;22.70;74.30;;;;;;5041444;28;20078;-71
2022/10/10 12:08:58;;;;;;;8.38;3.42;;;23.30;73.70;;;;;;5040258;28;20044;-72
2022/10/10 12:11:27;;;;;;;9.45;3.65;;;23.60;71.00;;;;;;5039588;28;20029;-71
2022/10/10 12:13:56;;;;;;;8.43;3.55;;;23.50;70.60;;;;;;5038955;28;20084;-71
2022/10/10 12:16:27;;;;;;;8.70;3.28;;;23.20;70.90;;;;;;5041369;28;20045;-71
2022/10/10 12:18:58;;;;;;;11.18;3.40;;;23.20;72.80;;;;;;5041484;28;20439;-72
2022/10/10 12:21:25;;;;;;;8.18;3.30;;;23.50;71.10;;;;;;5037101;28;20033;-71
2022/10/10 12:24:12;;;;;;;6.22;3.25;;;23.70;70.50;;;;;;5043247;28;20067;-71
2022/10/10 12:26:56;;;;;;;5.57;3.22;;;23.50;70.30;;;;;;5040005;28;20039;-71
2022/10/10 12:29:43;;;;;;;12.48;3.90;;;23.20;71.20;;;;;;5039346;28;20131;-70
2022/10/10 12:32:16;;;;;;;12.93;3.85;;;23.00;72.30;;;;;;5041547;28;20032;-72
2022/10/10 12:34:46;;;;;;;5.35;2.83;;;23.50;70.70;;;;;;5040717;28;20442;-74
2022/10/10 12:37:29;;;;;;;8.77;3.40;;;24.20;69.80;;;;;;5038990;28;20036;-69
2022/10/10 12:40:06;;;;;;;7.38;3.40;;;24.40;68.30;;;;;;5058527;28;20424;-71
2022/10/10 12:43:01;;;;;;;7.32;3.60;;;24.10;66.90;;;;;;5043171;28;20059;-73
2022/10/10 12:45:32;;;;;;;6.70;4.38;;;23.70;67.30;;;;;;5037348;28;20029;-73
2022/10/10 12:48:03;;;;;;;15.82;3.92;;;24.00;67.50;;;;;;5039546;28;20029;-71
2022/10/10 12:50:35;;;;;;;11.65;3.83;;;24.10;67.40;;;;;;5042787;28;20025;-71
2022/10/10 12:53:03;;;;;;;9.35;3.95;;;24.20;66.40;;;;;;5053116;28;20028;-70
2022/10/10 12:55:39;;;;;;;14.30;3.88;;;24.30;66.80;;;;;;5038433;28;20052;-71
2022/10/10 12:58:13;;;;;;;9.73;4.93;;;24.50;66.90;;;;;;5040114;28;20029;-71
2022/10/10 13:00:44;;;;;;;7.10;4.15;;;24.50;65.80;;;;;;5041611;28;20029;-71
2022/10/10 13:03:35;;;;;;;9.98;3.33;;;24.90;64.60;;;;;;5038343;28;20029;-70
2022/10/10 13:06:33;;;;;;;9.63;3.55;;;25.10;64.30;;;;;;5036266;28;20033;-71